Time;durP1;ratioP1;P1;durP2;ratioP2;P2;SDS_P1;SDS_P2;PMS_P1;PMS_P2;Temp;Humidity;BMP_temperature;BMP_pressure;BME280_temperature;BME280_humidity;BME280_pressure;Samples;Min_cycle;Max_cycle;Signal;HPM_P1;HPM_P2
2022/11/27 00:01:32;;;;;;;27.37;21.93;;;3.90;99.90;;;;;;5062444;28;20454;-84
2022/11/27 00:03:59;;;;;;;23.27;19.97;;;3.80;99.90;;;;;;5062116;28;20863;-83
2022/11/27 00:06:28;;;;;;;26.77;19.80;;;3.70;99.90;;;;;;5060613;28;20876;-83
2022/11/27 00:08:56;;;;;;;25.90;19.90;;;3.70;99.90;;;;;;5060564;28;20445;-83
2022/11/27 00:11:26;;;;;;;24.40;19.43;;;3.70;99.90;;;;;;5072447;28;20463;-82
2022/11/27 00:13:53;;;;;;;26.07;21.40;;;3.60;99.90;;;;;;5079488;28;20436;-83
2022/11/27 00:16:21;;;;;;;30.40;20.50;;;3.60;99.90;;;;;;5077432;28;20471;-83
2022/11/27 00:18:48;;;;;;;23.60;18.97;;;3.70;99.90;;;;;;5062507;28;20455;-82
2022/11/27 00:21:16;;;;;;;26.57;20.23;;;3.60;99.90;;;;;;5062416;28;20460;-82
2022/11/27 00:23:44;;;;;;;27.93;20.43;;;3.60;99.90;;;;;;5075634;28;20429;-82
2022/11/27 00:26:11;;;;;;;24.83;19.03;;;3.60;99.90;;;;;;5064726;28;20499;-82
2022/11/27 00:28:39;;;;;;;27.80;21.10;;;3.60;99.90;;;;;;5060929;28;20455;-83
2022/11/27 00:31:12;;;;;;;26.90;20.37;;;3.50;99.90;;;;;;5066525;28;20938;-83
2022/11/27 00:33:38;;;;;;;29.40;22.33;;;3.50;99.90;;;;;;5071267;28;20441;-83
2022/11/27 00:36:07;;;;;;;24.63;21.10;;;3.40;99.90;;;;;;5062400;28;20528;-84
2022/11/27 00:38:35;;;;;;;22.80;19.20;;;3.40;99.90;;;;;;5067486;28;20445;-82
2022/11/27 00:41:06;;;;;;;28.30;23.07;;;3.40;99.90;;;;;;5075479;28;20451;-82
2022/11/27 00:43:33;;;;;;;25.50;22.17;;;3.40;99.90;;;;;;5067327;28;20495;-83
2022/11/27 00:46:02;;;;;;;28.20;20.23;;;3.40;99.90;;;;;;5060778;28;20495;-83
2022/11/27 00:48:29;;;;;;;28.80;22.23;;;3.40;99.90;;;;;;5060228;28;20476;-84
2022/11/27 00:51:00;;;;;;;26.07;20.90;;;3.30;99.90;;;;;;5062548;28;20548;-83
2022/11/27 00:53:27;;;;;;;25.57;21.50;;;3.30;99.90;;;;;;5068193;28;20449;-82
2022/11/27 00:55:54;;;;;;;33.17;21.90;;;3.20;99.90;;;;;;5065614;28;20500;-83
2022/11/27 00:58:20;;;;;;;24.63;18.93;;;3.20;99.90;;;;;;5061198;28;20449;-83
2022/11/27 01:00:55;;;;;;;23.23;20.73;;;3.10;99.90;;;;;;5060015;28;20532;-83
2022/11/27 01:03:24;;;;;;;29.33;21.90;;;3.10;99.90;;;;;;5065097;28;20447;-83
2022/11/27 01:05:51;;;;;;;24.87;21.90;;;3.10;99.90;;;;;;5074884;28;20503;-83
2022/11/27 01:08:19;;;;;;;27.93;21.77;;;3.10;99.90;;;;;;5077113;28;20516;-83
2022/11/27 01:10:50;;;;;;;25.47;22.07;;;3.10;99.90;;;;;;5074702;28;20479;-83
2022/11/27 01:13:17;;;;;;;24.97;20.53;;;3.10;99.90;;;;;;5070941;28;20495;-84
2022/11/27 01:15:44;;;;;;;30.43;21.73;;;3.00;99.90;;;;;;5061286;28;20453;-84
2022/11/27 01:18:11;;;;;;;29.53;24.93;;;2.90;99.90;;;;;;5061146;28;20464;-82
2022/11/27 01:20:40;;;;;;;23.70;20.63;;;3.00;99.90;;;;;;5060248;28;20452;-83
2022/11/27 01:23:08;;;;;;;25.77;21.73;;;2.90;99.90;;;;;;5059423;28;20448;-83
2022/11/27 01:25:35;;;;;;;27.03;20.53;;;2.90;99.90;;;;;;5058776;28;20485;-82
2022/11/27 01:28:02;;;;;;;27.50;21.03;;;2.90;99.90;;;;;;5059092;28;20488;-81
2022/11/27 01:30:29;;;;;;;23.77;21.27;;;2.90;99.90;;;;;;5059337;28;20478;-82
2022/11/27 01:32:55;;;;;;;26.83;20.47;;;2.90;99.90;;;;;;5058227;28;20455;-83
2022/11/27 01:35:22;;;;;;;21.83;19.50;;;2.90;99.90;;;;;;5057596;28;20452;-83
2022/11/27 01:37:50;;;;;;;26.10;21.37;;;2.90;99.90;;;;;;5057651;28;20555;-83
2022/11/27 01:40:17;;;;;;;24.13;19.70;;;2.90;99.90;;;;;;5056974;28;20457;-83
2022/11/27 01:42:44;;;;;;;29.40;20.73;;;2.90;99.90;;;;;;5058940;28;20444;-82
2022/11/27 01:45:14;;;;;;;22.77;20.27;;;2.90;99.90;;;;;;5067844;28;20484;-82
2022/11/27 01:47:48;;;;;;;24.93;20.77;;;2.90;99.90;;;;;;5071774;28;20471;-83
2022/11/27 01:50:21;;;;;;;25.57;19.50;;;2.90;99.90;;;;;;5064613;28;20529;-83
2022/11/27 01:52:54;;;;;;;26.80;21.43;;;2.90;99.90;;;;;;5063337;28;20486;-83
2022/11/27 01:55:31;;;;;;;29.30;20.93;;;2.80;99.90;;;;;;5070341;28;20444;-83
2022/11/27 01:58:01;;;;;;;27.00;20.20;;;2.80;99.90;;;;;;5063673;28;20504;-83
2022/11/27 02:00:27;;;;;;;28.37;20.97;;;2.80;99.90;;;;;;5059259;28;20444;-83
2022/11/27 02:02:54;;;;;;;22.63;19.70;;;2.80;99.90;;;;;;5060481;28;20458;-82
2022/11/27 02:05:23;;;;;;;32.80;22.63;;;2.80;99.90;;;;;;5069124;28;20479;-83
2022/11/27 02:07:53;;;;;;;24.07;20.30;;;2.80;99.90;;;;;;5064185;28;20487;-83
2022/11/27 02:10:21;;;;;;;29.63;21.97;;;2.80;99.90;;;;;;5065762;28;20438;-83
2022/11/27 02:12:54;;;;;;;31.30;22.90;;;2.70;99.90;;;;;;5069349;28;20437;-83
2022/11/27 02:15:30;;;;;;;25.47;21.20;;;2.70;99.90;;;;;;5065889;28;20432;-83
2022/11/27 02:18:06;;;;;;;29.10;22.77;;;2.60;99.90;;;;;;5065704;28;20467;-83
2022/11/27 02:20:42;;;;;;;27.90;22.10;;;2.60;99.90;;;;;;5063246;28;20451;-83
2022/11/27 02:23:55;;;;;;;30.35;22.25;;;2.60;99.90;;;;;;5061364;28;20440;-83
2022/11/27 02:27:01;;;;;;;32.47;22.87;;;2.60;99.90;;;;;;5064490;28;20236;-83
2022/11/27 02:29:31;;;;;;;27.53;21.43;;;2.60;99.90;;;;;;5067844;28;20493;-82
2022/11/27 02:32:04;;;;;;;30.10;22.73;;;2.60;99.90;;;;;;5072138;28;20476;-82
2022/11/27 02:34:37;;;;;;;27.37;21.37;;;2.60;99.90;;;;;;5073573;28;20445;-83
2022/11/27 02:37:17;;;;;;;27.80;22.87;;;2.50;99.90;;;;;;5075770;28;20567;-83
2022/11/27 02:39:51;;;;;;;31.10;23.27;;;2.40;99.90;;;;;;5070459;28;20445;-84
2022/11/27 02:42:20;;;;;;;26.33;20.53;;;2.40;99.90;;;;;;5069266;28;20436;-84
2022/11/27 02:44:52;;;;;;;26.67;22.00;;;2.40;99.90;;;;;;5073574;28;20563;-83
2022/11/27 02:47:20;;;;;;;38.17;25.67;;;2.40;99.90;;;;;;5078063;28;20451;-84
2022/11/27 02:49:50;;;;;;;28.53;20.87;;;2.40;99.90;;;;;;5074365;28;20822;-83
2022/11/27 02:52:19;;;;;;;27.58;22.73;;;2.30;99.90;;;;;;5070435;28;20920;-82
2022/11/27 02:54:50;;;;;;;27.80;21.33;;;2.30;99.90;;;;;;5073808;28;20202;-83
2022/11/27 02:57:19;;;;;;;30.87;22.70;;;2.30;99.90;;;;;;5066782;28;20478;-82
2022/11/27 02:59:50;;;;;;;32.33;23.77;;;2.30;99.90;;;;;;5068020;28;20968;-83
2022/11/27 03:02:21;;;;;;;27.48;21.75;;;2.20;99.90;;;;;;5071415;28;20194;-82
2022/11/27 03:04:50;;;;;;;28.70;21.47;;;2.20;99.90;;;;;;5079485;28;20210;-83
2022/11/27 03:07:24;;;;;;;31.10;21.80;;;2.20;99.90;;;;;;5079963;28;20467;-83
2022/11/27 03:09:57;;;;;;;26.83;21.43;;;2.20;99.90;;;;;;5085117;28;20449;-84
2022/11/27 03:12:24;;;;;;;30.40;23.90;;;2.20;99.90;;;;;;5071698;28;20440;-83
2022/11/27 03:14:55;;;;;;;30.80;21.57;;;2.20;99.90;;;;;;5071265;28;20432;-83
2022/11/27 03:17:36;;;;;;;31.27;23.60;;;2.10;99.90;;;;;;5064255;28;20464;-84
2022/11/27 03:20:14;;;;;;;26.40;19.83;;;2.10;99.90;;;;;;5070172;28;20454;-84
2022/11/27 03:22:42;;;;;;;23.10;18.47;;;2.10;99.90;;;;;;5093506;22;20492;-81
2022/11/27 03:25:09;;;;;;;30.67;21.30;;;2.00;99.90;;;;;;5048004;28;20595;-82
2022/11/27 03:27:41;;;;;;;25.87;20.90;;;2.00;99.90;;;;;;5046946;28;20451;-82
2022/11/27 03:30:11;;;;;;;23.38;18.60;;;2.00;99.90;;;;;;5046459;28;20446;-81
2022/11/27 03:32:38;;;;;;;24.15;21.60;;;2.00;99.90;;;;;;5046169;28;20691;-81
2022/11/27 03:35:09;;;;;;;27.90;20.10;;;1.90;99.90;;;;;;5052893;28;20566;-81
2022/11/27 03:37:36;;;;;;;29.37;21.07;;;2.00;99.90;;;;;;5052415;28;20191;-81
2022/11/27 03:40:04;;;;;;;27.67;21.40;;;1.90;99.90;;;;;;5047584;28;20438;-81
2022/11/27 03:42:40;;;;;;;27.10;21.33;;;1.90;99.90;;;;;;5047246;28;20471;-80
2022/11/27 03:45:15;;;;;;;30.77;22.30;;;2.00;99.90;;;;;;5047793;28;20848;-80
2022/11/27 03:47:55;;;;;;;27.60;20.27;;;2.00;99.90;;;;;;5048553;28;20838;-80
2022/11/27 03:50:33;;;;;;;26.20;20.70;;;2.00;99.90;;;;;;5055727;28;20441;-80
2022/11/27 03:53:08;;;;;;;33.33;21.55;;;2.00;99.90;;;;;;5059364;28;20234;-81
2022/11/27 03:55:40;;;;;;;26.13;19.48;;;2.00;99.90;;;;;;5049835;28;20659;-81
2022/11/27 03:58:12;;;;;;;25.95;19.30;;;1.90;99.90;;;;;;5046101;28;20213;-83
2022/11/27 04:00:42;;;;;;;26.93;20.27;;;1.90;99.90;;;;;;5045743;28;20191;-82
2022/11/27 04:03:10;;;;;;;25.50;20.33;;;1.90;99.90;;;;;;5047175;28;20458;-82
2022/11/27 04:05:37;;;;;;;21.58;18.25;;;1.90;99.90;;;;;;5046182;28;20218;-83
2022/11/27 04:08:05;;;;;;;24.60;18.60;;;2.00;99.90;;;;;;5046835;28;20236;-83
2022/11/27 04:10:31;;;;;;;25.90;20.90;;;1.90;99.90;;;;;;5044082;28;20195;-81
2022/11/27 04:12:58;;;;;;;23.00;19.73;;;1.90;99.90;;;;;;5045260;28;20537;-82
2022/11/27 04:15:26;;;;;;;25.40;19.37;;;1.90;99.90;;;;;;5044534;28;20270;-81
2022/11/27 04:17:54;;;;;;;24.98;18.38;;;1.90;99.90;;;;;;5045154;28;20446;-81
2022/11/27 04:20:21;;;;;;;25.52;19.23;;;1.80;99.90;;;;;;5039650;28;20995;-81
2022/11/27 04:22:54;;;;;;;24.80;19.05;;;1.80;99.90;;;;;;5044643;28;20231;-81
2022/11/27 04:25:20;;;;;;;23.75;18.17;;;1.70;99.90;;;;;;5043296;28;20246;-81
2022/11/27 04:27:47;;;;;;;23.50;18.70;;;1.80;99.90;;;;;;5044796;28;20202;-81
2022/11/27 04:30:14;;;;;;;24.23;17.90;;;1.80;99.90;;;;;;5045615;28;20216;-81
2022/11/27 04:32:41;;;;;;;22.53;18.67;;;1.80;99.90;;;;;;5045297;28;20703;-81
2022/11/27 04:35:12;;;;;;;24.17;18.25;;;1.80;99.90;;;;;;5043610;28;20446;-81
2022/11/27 04:37:39;;;;;;;24.73;19.23;;;1.80;99.90;;;;;;5054741;28;20194;-81
2022/11/27 04:40:07;;;;;;;24.70;19.95;;;1.80;99.90;;;;;;5049446;28;20437;-82
2022/11/27 04:42:34;;;;;;;22.55;18.90;;;1.70;99.90;;;;;;5045631;28;20215;-82
2022/11/27 04:45:01;;;;;;;24.60;19.40;;;1.70;99.90;;;;;;5044235;28;20198;-82
2022/11/27 04:47:28;;;;;;;24.23;18.00;;;1.60;99.90;;;;;;5040949;28;20277;-80
2022/11/27 04:49:55;;;;;;;19.73;17.45;;;1.60;99.90;;;;;;5044201;28;20450;-80
2022/11/27 04:52:23;;;;;;;24.05;17.77;;;1.50;99.90;;;;;;5047428;28;20234;-80
2022/11/27 04:54:50;;;;;;;24.60;19.50;;;1.50;99.90;;;;;;5055875;28;20214;-79
2022/11/27 04:57:17;;;;;;;21.90;18.70;;;1.50;99.90;;;;;;5051627;28;20200;-81
2022/11/27 04:59:43;;;;;;;19.50;17.25;;;1.50;99.90;;;;;;5045171;28;20683;-80
2022/11/27 05:02:11;;;;;;;24.60;19.30;;;1.50;99.90;;;;;;5046752;28;20215;-80
2022/11/27 05:04:38;;;;;;;26.75;18.98;;;1.50;99.90;;;;;;5043366;28;21001;-82
2022/11/27 05:07:05;;;;;;;27.30;20.23;;;1.50;99.90;;;;;;5041031;28;20222;-81
2022/11/27 05:09:33;;;;;;;19.33;17.38;;;1.60;99.90;;;;;;5042015;28;20464;-81
2022/11/27 05:11:59;;;;;;;20.52;16.85;;;1.60;99.90;;;;;;5041593;28;20226;-81
2022/11/27 05:14:28;;;;;;;20.80;16.25;;;1.60;99.90;;;;;;5041665;28;20202;-82
2022/11/27 05:16:57;;;;;;;22.50;18.20;;;1.60;99.90;;;;;;5044853;28;20559;-82
2022/11/27 05:19:26;;;;;;;19.83;17.05;;;1.60;99.90;;;;;;5050662;28;20205;-82
2022/11/27 05:21:54;;;;;;;21.60;16.13;;;1.60;99.90;;;;;;5050850;28;20301;-84
2022/11/27 05:24:23;;;;;;;19.10;17.00;;;1.50;99.90;;;;;;5045154;28;20198;-84
2022/11/27 05:26:51;;;;;;;21.92;16.63;;;1.60;99.90;;;;;;5045326;28;20469;-84
2022/11/27 05:29:19;;;;;;;20.77;17.57;;;1.50;99.90;;;;;;5048180;28;20312;-84
2022/11/27 05:31:46;;;;;;;23.85;17.85;;;1.50;99.90;;;;;;5046456;28;20970;-84
2022/11/27 05:34:13;;;;;;;20.92;17.95;;;1.50;99.90;;;;;;5046544;28;20198;-84
2022/11/27 05:36:39;;;;;;;25.08;18.70;;;1.50;99.90;;;;;;5046059;28;20194;-84
2022/11/27 05:39:08;;;;;;;22.40;17.70;;;1.50;99.90;;;;;;5046611;28;20195;-84
2022/11/27 05:41:36;;;;;;;25.65;18.25;;;1.50;99.90;;;;;;5047334;28;20214;-84
2022/11/27 05:44:04;;;;;;;22.30;18.48;;;1.40;99.90;;;;;;5045602;28;20203;-84
2022/11/27 05:46:31;;;;;;;24.48;17.85;;;1.40;99.90;;;;;;5066351;28;20225;-84
2022/11/27 05:48:58;;;;;;;20.23;15.98;;;1.40;99.90;;;;;;5070988;28;20209;-84
2022/11/27 05:51:25;;;;;;;19.95;16.75;;;1.30;99.90;;;;;;5053996;28;20209;-84
2022/11/27 05:53:51;;;;;;;18.08;16.02;;;1.30;99.90;;;;;;5052443;28;20198;-84
2022/11/27 05:56:18;;;;;;;20.77;16.00;;;1.30;99.90;;;;;;5063901;28;20210;-84
2022/11/27 05:58:48;;;;;;;21.50;16.55;;;1.20;99.90;;;;;;5053210;28;20218;-84
2022/11/27 06:01:17;;;;;;;19.55;15.25;;;1.20;99.90;;;;;;5054831;28;20226;-84
2022/11/27 06:03:44;;;;;;;17.05;14.13;;;1.10;99.90;;;;;;5047168;28;21137;-84
2022/11/27 06:06:14;;;;;;;19.50;14.70;;;1.20;99.90;;;;;;5046429;28;20225;-85
2022/11/27 06:08:41;;;;;;;22.00;16.40;;;1.10;99.90;;;;;;5046732;28;20194;-84
2022/11/27 06:11:09;;;;;;;19.55;16.85;;;1.10;99.90;;;;;;5047360;28;20734;-84
2022/11/27 06:13:36;;;;;;;22.00;16.88;;;1.00;99.90;;;;;;5047597;28;20238;-84
2022/11/27 06:16:08;;;;;;;19.83;17.33;;;1.00;99.90;;;;;;5046336;28;20190;-84
2022/11/27 06:18:36;;;;;;;19.15;16.38;;;1.00;99.90;;;;;;5043118;28;20199;-84
2022/11/27 06:21:07;;;;;;;24.05;16.73;;;1.00;99.90;;;;;;5044885;28;20198;-84
2022/11/27 06:23:34;;;;;;;20.65;18.45;;;1.00;99.90;;;;;;5045202;28;20230;-84
2022/11/27 06:26:10;;;;;;;22.55;16.70;;;1.00;99.90;;;;;;5044131;28;20211;-84
2022/11/27 06:28:36;;;;;;;19.25;17.20;;;1.00;99.90;;;;;;5045340;28;20257;-84
2022/11/27 06:31:06;;;;;;;20.23;16.40;;;1.00;99.90;;;;;;5059760;28;20201;-84
2022/11/27 06:33:33;;;;;;;22.58;18.42;;;1.00;99.90;;;;;;5042231;28;20644;-83
2022/11/27 06:36:01;;;;;;;22.90;16.20;;;1.00;99.90;;;;;;5065873;28;20198;-84
2022/11/27 06:38:28;;;;;;;20.40;17.60;;;0.90;99.90;;;;;;5073118;28;20193;-84
2022/11/27 06:40:55;;;;;;;21.95;17.90;;;1.00;99.90;;;;;;5061658;28;20217;-84
2022/11/27 06:43:22;;;;;;;18.85;16.95;;;1.00;99.90;;;;;;5048908;28;20228;-84
2022/11/27 06:45:56;;;;;;;20.20;15.73;;;0.90;99.90;;;;;;5046285;28;20225;-84
2022/11/27 06:48:22;;;;;;;19.05;17.02;;;0.90;99.90;;;;;;5044065;28;20249;-84
2022/11/27 06:50:49;;;;;;;19.75;16.90;;;0.90;99.90;;;;;;5047015;28;20195;-84
2022/11/27 06:53:18;;;;;;;20.27;17.95;;;0.90;99.90;;;;;;5045693;28;20237;-84
2022/11/27 06:55:45;;;;;;;18.30;15.63;;;0.90;99.90;;;;;;5055522;28;20202;-84
2022/11/27 06:58:12;;;;;;;20.13;15.10;;;1.00;99.90;;;;;;5052151;28;20198;-84
2022/11/27 07:00:38;;;;;;;19.73;15.50;;;1.00;99.90;;;;;;5047937;28;20210;-84
2022/11/27 07:03:05;;;;;;;21.60;16.58;;;1.00;99.90;;;;;;5049211;28;20235;-84
2022/11/27 07:05:32;;;;;;;18.35;14.90;;;1.00;99.90;;;;;;5056129;28;20199;-84
2022/11/27 07:07:59;;;;;;;17.00;14.80;;;1.00;99.90;;;;;;5052646;28;20202;-84
2022/11/27 07:10:27;;;;;;;20.13;16.13;;;1.00;99.90;;;;;;5060266;28;20207;-83
2022/11/27 07:12:53;;;;;;;17.70;15.52;;;1.00;99.90;;;;;;5051664;28;20231;-84
2022/11/27 07:15:20;;;;;;;20.33;16.63;;;1.00;99.90;;;;;;5046840;28;20281;-84
2022/11/27 07:17:47;;;;;;;18.67;16.40;;;1.10;99.90;;;;;;5060606;28;20501;-83
2022/11/27 07:20:14;;;;;;;19.10;15.63;;;1.20;99.90;;;;;;5064028;28;20195;-83
2022/11/27 07:22:40;;;;;;;21.40;15.48;;;1.30;99.90;;;;;;5051839;28;20237;-84
2022/11/27 07:25:08;;;;;;;19.00;15.60;;;1.30;99.90;;;;;;5050614;28;20202;-84
2022/11/27 07:27:36;;;;;;;20.88;15.27;;;1.40;99.90;;;;;;5049796;28;20222;-84
2022/11/27 07:30:03;;;;;;;18.50;14.90;;;1.40;99.90;;;;;;5050226;28;20217;-84
2022/11/27 07:32:30;;;;;;;16.48;14.73;;;1.40;99.90;;;;;;5050100;28;20218;-84
2022/11/27 07:34:57;;;;;;;18.13;14.70;;;1.40;99.90;;;;;;5050450;28;20206;-84
2022/11/27 07:37:24;;;;;;;18.40;14.18;;;1.60;99.90;;;;;;5049527;28;20195;-84
2022/11/27 07:39:50;;;;;;;17.92;14.85;;;1.60;99.90;;;;;;5049915;28;20198;-84
2022/11/27 07:42:17;;;;;;;17.20;14.05;;;1.70;99.90;;;;;;5050972;28;20219;-84
2022/11/27 07:44:45;;;;;;;17.10;13.75;;;1.80;99.90;;;;;;5050415;28;20201;-84
2022/11/27 07:47:12;;;;;;;18.27;14.77;;;1.80;99.90;;;;;;5049944;28;20271;-84
2022/11/27 07:49:39;;;;;;;17.85;14.48;;;1.80;99.90;;;;;;5049002;28;20203;-84
2022/11/27 07:52:05;;;;;;;15.82;13.40;;;1.90;99.90;;;;;;5050714;28;20302;-84
2022/11/27 07:54:33;;;;;;;15.48;12.85;;;2.00;99.90;;;;;;5049682;28;20202;-84
2022/11/27 07:56:59;;;;;;;13.98;12.68;;;2.00;99.90;;;;;;5049132;28;20202;-84
2022/11/27 07:59:26;;;;;;;13.93;12.40;;;2.00;99.90;;;;;;5048548;28;20194;-84
2022/11/27 08:01:54;;;;;;;13.32;11.93;;;2.10;99.90;;;;;;5048947;28;20245;-84
2022/11/27 08:04:21;;;;;;;14.23;12.63;;;2.00;99.90;;;;;;5048445;28;20195;-83
2022/11/27 08:06:48;;;;;;;11.95;10.73;;;2.00;99.90;;;;;;5061012;28;20202;-83
2022/11/27 08:09:15;;;;;;;12.43;10.98;;;2.00;99.90;;;;;;5058805;28;20195;-83
2022/11/27 08:11:42;;;;;;;16.05;14.40;;;2.00;99.90;;;;;;5057335;28;20202;-84
2022/11/27 08:14:09;;;;;;;13.65;12.13;;;1.90;99.90;;;;;;5061124;28;20203;-83
2022/11/27 08:16:36;;;;;;;13.57;10.68;;;2.00;99.90;;;;;;5044949;28;20572;-83
2022/11/27 08:19:04;;;;;;;13.98;12.35;;;1.90;99.90;;;;;;5056653;28;20191;-83
2022/11/27 08:21:32;;;;;;;13.05;11.50;;;1.90;99.90;;;;;;5047437;28;20207;-83
2022/11/27 08:23:59;;;;;;;12.40;11.20;;;1.90;99.90;;;;;;5059865;28;20208;-83
2022/11/27 08:26:27;;;;;;;13.10;11.18;;;1.90;99.90;;;;;;5061090;28;20213;-84
2022/11/27 08:28:54;;;;;;;13.10;11.37;;;2.00;99.90;;;;;;5056196;28;20221;-83
2022/11/27 08:31:21;;;;;;;11.88;9.98;;;2.00;99.90;;;;;;5056751;28;20438;-84
2022/11/27 08:33:49;;;;;;;9.70;8.80;;;2.10;99.90;;;;;;5049885;28;20190;-84
2022/11/27 08:36:17;;;;;;;13.82;11.00;;;2.10;99.90;;;;;;5048735;28;20328;-84
2022/11/27 08:38:43;;;;;;;11.20;10.02;;;2.10;99.90;;;;;;5048370;28;20201;-84
2022/11/27 08:41:10;;;;;;;10.50;9.50;;;2.30;99.90;;;;;;5049339;28;20579;-84
2022/11/27 08:43:37;;;;;;;13.47;12.23;;;2.60;99.90;;;;;;5048386;28;20221;-84
2022/11/27 08:46:04;;;;;;;10.60;9.52;;;3.40;99.90;;;;;;5049657;28;20456;-84
2022/11/27 08:48:31;;;;;;;10.63;9.67;;;3.80;99.90;;;;;;5047639;28;20222;-84
2022/11/27 08:50:58;;;;;;;9.20;8.30;;;3.90;99.90;;;;;;5047586;28;20455;-84
2022/11/27 08:53:26;;;;;;;9.83;8.97;;;4.20;99.90;;;;;;5048173;28;20465;-85
2022/11/27 08:55:53;;;;;;;8.53;7.57;;;4.20;99.90;;;;;;5052059;28;20445;-84
2022/11/27 08:58:20;;;;;;;10.20;9.20;;;4.30;99.90;;;;;;5057954;28;20423;-84
2022/11/27 09:00:47;;;;;;;15.00;8.93;;;4.30;99.90;;;;;;5073276;28;20428;-84
2022/11/27 09:03:13;;;;;;;9.30;8.40;;;4.60;99.90;;;;;;5059059;28;20458;-84
2022/11/27 09:05:43;;;;;;;8.63;7.83;;;5.50;99.90;;;;;;5047085;28;20913;-84
2022/11/27 09:08:12;;;;;;;24.00;21.60;;;6.80;99.90;;;;;;5045897;28;20478;-84
2022/11/27 09:10:40;;;;;;;9.00;8.10;;;7.90;99.90;;;;;;5047539;28;20448;-85
2022/11/27 09:13:07;;;;;;;9.60;8.70;;;9.00;99.90;;;;;;5045252;28;20464;-85
2022/11/27 09:15:33;;;;;;;9.63;8.70;;;9.70;99.90;;;;;;5048213;28;20437;-84
2022/11/27 09:18:00;;;;;;;8.30;7.30;;;10.20;99.90;;;;;;5048655;28;20434;-84
2022/11/27 09:20:28;;;;;;;8.87;8.00;;;9.80;99.20;;;;;;5057555;28;20438;-85
2022/11/27 09:22:55;;;;;;;8.13;7.43;;;9.50;99.10;;;;;;5047240;28;20473;-85
2022/11/27 09:25:22;;;;;;;10.57;9.43;;;8.80;99.50;;;;;;5047846;28;20438;-85
2022/11/27 09:27:50;;;;;;;8.40;7.57;;;8.20;99.90;;;;;;5046297;28;20476;-85
2022/11/27 09:30:17;;;;;;;8.83;8.00;;;8.00;99.90;;;;;;5047798;28;20437;-85
2022/11/27 09:32:43;;;;;;;10.63;9.63;;;7.90;99.90;;;;;;5046978;28;20468;-84
2022/11/27 09:35:10;;;;;;;13.17;8.53;;;7.30;99.90;;;;;;5050920;28;20815;-85
2022/11/27 09:37:37;;;;;;;9.27;8.40;;;7.10;99.90;;;;;;5057414;28;20429;-84
2022/11/27 09:40:04;;;;;;;10.10;9.10;;;7.10;99.90;;;;;;5062391;28;20441;-84
2022/11/27 09:42:39;;;;;;;9.90;8.90;;;6.90;99.90;;;;;;5049271;28;20472;-85
2022/11/27 09:45:13;;;;;;;10.20;9.17;;;7.30;99.90;;;;;;5058963;28;20433;-84
2022/11/27 09:47:44;;;;;;;9.73;8.73;;;7.30;99.90;;;;;;5061006;28;20484;-84
2022/11/27 09:50:14;;;;;;;10.00;9.10;;;7.00;99.90;;;;;;5050575;28;20438;-84
2022/11/27 09:52:43;;;;;;;11.27;10.17;;;7.00;99.90;;;;;;5047561;28;20460;-84
2022/11/27 09:55:17;;;;;;;10.93;9.93;;;7.10;99.90;;;;;;5046284;28;21008;-85
2022/11/27 09:57:53;;;;;;;9.90;9.00;;;7.10;99.90;;;;;;5048007;28;20484;-84
2022/11/27 10:00:21;;;;;;;10.93;9.57;;;7.10;99.90;;;;;;5049703;28;20434;-84
2022/11/27 10:02:48;;;;;;;11.40;10.23;;;7.40;99.90;;;;;;5048000;28;20468;-84
2022/11/27 10:05:20;;;;;;;10.20;9.23;;;7.90;99.90;;;;;;5061769;28;20442;-84
2022/11/27 10:08:18;;;;;;;9.07;8.17;;;8.80;99.90;;;;;;5048102;28;20492;-84
2022/11/27 10:10:56;;;;;;;10.37;9.20;;;8.80;99.90;;;;;;5048724;28;20520;-84
2022/11/27 10:13:45;;;;;;;12.47;8.77;;;9.20;99.90;;;;;;5055109;28;20534;-84
2022/11/27 10:16:25;;;;;;;10.87;9.87;;;9.00;99.90;;;;;;5062966;28;20430;-85
2022/11/27 10:18:55;;;;;;;9.00;7.87;;;9.10;99.90;;;;;;5059031;28;20943;-84
2022/11/27 10:21:30;;;;;;;9.20;8.30;;;9.00;99.90;;;;;;5046398;28;20437;-84
2022/11/27 10:24:04;;;;;;;9.77;8.87;;;9.20;99.90;;;;;;5047320;28;20440;-84
2022/11/27 10:26:36;;;;;;;9.10;8.33;;;9.30;99.90;;;;;;5046837;28;20848;-84
2022/11/27 10:29:11;;;;;;;9.40;8.57;;;9.40;99.90;;;;;;5052074;28;20449;-84
2022/11/27 10:31:43;;;;;;;8.83;7.87;;;9.30;99.90;;;;;;5060278;28;21042;-85
2022/11/27 10:34:24;;;;;;;8.13;7.20;;;9.10;99.90;;;;;;5043704;28;20689;-84
2022/11/27 10:36:55;;;;;;;8.93;8.03;;;8.70;99.90;;;;;;5044505;28;20441;-85
2022/11/27 10:39:29;;;;;;;9.03;7.90;;;9.10;99.90;;;;;;5046126;28;20457;-87
2022/11/27 10:42:02;;;;;;;8.00;7.30;;;11.70;99.90;;;;;;5045906;28;20460;-84
2022/11/27 10:44:33;;;;;;;8.00;7.30;;;14.90;94.50;;;;;;5066794;28;20506;-85
2022/11/27 10:47:03;;;;;;;7.80;7.20;;;16.60;87.10;;;;;;5063129;28;20476;-84
2022/11/27 10:49:31;;;;;;;7.90;7.20;;;18.20;79.30;;;;;;5047094;28;20437;-79
2022/11/27 10:51:59;;;;;;;12.53;8.90;;;17.90;74.90;;;;;;5043735;28;20846;-79
2022/11/27 10:54:28;;;;;;;7.73;7.03;;;17.00;75.90;;;;;;5052013;28;20448;-80
2022/11/27 10:57:16;;;;;;;7.30;6.70;;;17.60;75.00;;;;;;5060688;28;20441;-80
2022/11/27 10:59:49;;;;;;;7.30;6.70;;;18.30;75.40;;;;;;5063219;28;20410;-86
2022/11/27 11:02:31;;;;;;;8.93;8.13;;;20.30;72.30;;;;;;5066619;28;20459;-85
2022/11/27 11:04:58;;;;;;;11.70;8.33;;;20.80;64.10;;;;;;5056461;28;20968;-85
2022/11/27 11:07:27;;;;;;;8.43;7.63;;;21.20;62.00;;;;;;5051622;28;20485;-84
2022/11/27 11:09:54;;;;;;;8.50;7.53;;;21.50;62.40;;;;;;5052454;28;20450;-85
2022/11/27 11:12:23;;;;;;;8.30;7.60;;;22.30;59.60;;;;;;5050646;28;20481;-84
2022/11/27 11:14:51;;;;;;;7.70;7.10;;;22.60;57.70;;;;;;5050398;28;20433;-85
2022/11/27 11:17:24;;;;;;;7.23;6.53;;;23.00;57.20;;;;;;5050552;28;20457;-83
2022/11/27 11:19:52;;;;;;;7.70;7.10;;;23.10;55.50;;;;;;5049450;28;20442;-83
2022/11/27 11:22:22;;;;;;;7.07;6.47;;;22.70;55.80;;;;;;5049594;28;20480;-83
2022/11/27 11:24:50;;;;;;;7.20;6.60;;;23.00;54.40;;;;;;5048952;28;20441;-83
2022/11/27 11:27:20;;;;;;;7.10;6.50;;;23.50;54.00;;;;;;5050803;28;20493;-83
2022/11/27 11:29:52;;;;;;;8.40;7.70;;;22.60;52.90;;;;;;5048394;28;20445;-85
2022/11/27 11:32:23;;;;;;;7.47;6.77;;;22.40;55.30;;;;;;5047625;28;20476;-83
2022/11/27 11:34:53;;;;;;;8.30;7.50;;;22.20;54.10;;;;;;5050383;28;20452;-83
2022/11/27 11:37:24;;;;;;;8.07;7.37;;;21.10;54.80;;;;;;5046919;28;20445;-84
2022/11/27 11:39:58;;;;;;;8.27;7.57;;;19.30;57.30;;;;;;5078102;28;20413;-84
2022/11/27 11:42:27;;;;;;;7.70;7.10;;;17.30;60.30;;;;;;5056934;28;20457;-85
2022/11/27 11:45:01;;;;;;;8.83;8.13;;;16.30;65.00;;;;;;5047856;28;20978;-82
2022/11/27 11:47:28;;;;;;;8.30;7.50;;;14.80;68.60;;;;;;5047661;28;20477;-84
2022/11/27 11:49:57;;;;;;;8.30;7.53;;;14.20;72.50;;;;;;5047289;28;20441;-82
2022/11/27 11:52:53;;;;;;;8.83;8.03;;;13.40;75.60;;;;;;5047636;28;20959;-84
2022/11/27 11:55:25;;;;;;;7.40;6.70;;;14.60;77.20;;;;;;5049829;28;20441;-83
2022/11/27 11:58:08;;;;;;;7.83;7.13;;;15.70;72.70;;;;;;5049286;28;20480;-84
2022/11/27 12:00:41;;;;;;;8.73;7.77;;;16.90;70.40;;;;;;5054414;28;20444;-82
2022/11/27 12:03:29;;;;;;;7.03;6.40;;;18.30;66.70;;;;;;5054195;28;20488;-82
2022/11/27 12:06:20;;;;;;;7.73;7.03;;;20.60;63.10;;;;;;5035501;28;20819;-82
2022/11/27 12:08:58;;;;;;;8.90;8.13;;;21.10;58.80;;;;;;5057690;28;20480;-82
2022/11/27 12:11:34;;;;;;;8.23;7.53;;;21.50;57.70;;;;;;5068863;28;20524;-81
2022/11/27 12:14:13;;;;;;;8.50;7.77;;;20.60;57.10;;;;;;5079271;28;20408;-80
2022/11/27 12:16:49;;;;;;;7.60;6.97;;;19.90;58.30;;;;;;5077808;28;20436;-80
2022/11/27 12:19:46;;;;;;;7.83;7.10;;;18.60;60.30;;;;;;5090840;22;20487;-86
2022/11/27 12:22:29;;;;;;;8.00;7.30;;;16.80;63.20;;;;;;5069967;28;20476;-83
2022/11/27 12:25:04;;;;;;;7.73;7.10;;;16.60;67.00;;;;;;5060054;28;20437;-86
2022/11/27 12:27:42;;;;;;;7.73;6.80;;;15.90;67.30;;;;;;5066943;28;20468;-87
2022/11/27 12:30:13;;;;;;;8.00;7.20;;;15.90;68.10;;;;;;5069270;28;20524;-87
2022/11/27 12:33:18;;;;;;;8.87;8.00;;;14.80;69.50;;;;;;5062887;28;20429;-86
2022/11/27 12:35:52;;;;;;;7.87;7.07;;;15.00;73.10;;;;;;5059814;28;20440;-85
2022/11/27 12:38:40;;;;;;;8.83;8.00;;;14.40;72.10;;;;;;5048424;28;20441;-87
2022/11/27 12:41:39;;;;;;;7.60;6.90;;;14.00;74.70;;;;;;5047211;28;20449;-85
2022/11/27 12:44:17;;;;;;;8.70;7.80;;;14.10;75.50;;;;;;5066814;28;20496;-86
2022/11/27 12:46:53;;;;;;;9.50;8.60;;;14.00;76.00;;;;;;5065754;28;20448;-88
2022/11/27 12:49:24;;;;;;;7.93;7.17;;;13.20;77.20;;;;;;5058306;28;20476;-84
2022/11/27 12:51:57;;;;;;;8.60;7.80;;;12.90;80.00;;;;;;5050396;28;20442;-85
2022/11/27 12:54:31;;;;;;;9.00;8.17;;;12.60;80.70;;;;;;5047713;28;20445;-83
2022/11/27 12:57:03;;;;;;;9.37;8.47;;;12.10;82.90;;;;;;5046438;28;20445;-83